sensor_id;sensor_type;location;lat;lon;timestamp;P1;P2;P0
44045;PMS7003;29709;52.396;16.796;2023-06-22T00:02:34;11;10;9
44045;PMS7003;29709;52.396;16.796;2023-06-22T00:05:47;15;12;9
44045;PMS7003;29709;52.396;16.796;2023-06-22T00:09:01;14;11;10
44045;PMS7003;29709;52.396;16.796;2023-06-22T00:12:15;11;11;9
44045;PMS7003;29709;52.396;16.796;2023-06-22T00:15:29;13;11;9
44045;PMS7003;29709;52.396;16.796;2023-06-22T00:18:42;13;11;8
44045;PMS7003;29709;52.396;16.796;2023-06-22T00:21:59;11;11;9
44045;PMS7003;29709;52.396;16.796;2023-06-22T00:25:38;12;11;8
44045;PMS7003;29709;52.396;16.796;2023-06-22T00:28:55;11;9;8
44045;PMS7003;29709;52.396;16.796;2023-06-22T00:32:08;13;11;9
44045;PMS7003;29709;52.396;16.796;2023-06-22T00:35:21;10;9;8
44045;PMS7003;29709;52.396;16.796;2023-06-22T00:38:34;14;12;10
44045;PMS7003;29709;52.396;16.796;2023-06-22T00:41:52;12;10;8
44045;PMS7003;29709;52.396;16.796;2023-06-22T00:45:06;11;10;8
44045;PMS7003;29709;52.396;16.796;2023-06-22T00:48:20;11;10;8
44045;PMS7003;29709;52.396;16.796;2023-06-22T00:51:33;13;10;8
44045;PMS7003;29709;52.396;16.796;2023-06-22T00:54:51;4;3;2
44045;PMS7003;29709;52.396;16.796;2023-06-22T00:58:05;10;9;8
44045;PMS7003;29709;52.396;16.796;2023-06-22T01:01:22;14;11;9
44045;PMS7003;29709;52.396;16.796;2023-06-22T01:04:36;13;13;10
44045;PMS7003;29709;52.396;16.796;2023-06-22T01:11:37;13;11;9
44045;PMS7003;29709;52.396;16.796;2023-06-22T01:14:47;14;13;10
44045;PMS7003;29709;52.396;16.796;2023-06-22T01:18:09;12;11;9
44045;PMS7003;29709;52.396;16.796;2023-06-22T01:21:27;14;13;10
44045;PMS7003;29709;52.396;16.796;2023-06-22T01:24:48;10;10;8
44045;PMS7003;29709;52.396;16.796;2023-06-22T01:31:34;10;10;8
44045;PMS7003;29709;52.396;16.796;2023-06-22T01:34:48;12;11;9
44045;PMS7003;29709;52.396;16.796;2023-06-22T01:38:02;12;12;9
44045;PMS7003;29709;52.396;16.796;2023-06-22T01:41:16;11;11;9
44045;PMS7003;29709;52.396;16.796;2023-06-22T01:44:30;12;10;9
44045;PMS7003;29709;52.396;16.796;2023-06-22T01:47:44;12;10;8
44045;PMS7003;29709;52.396;16.796;2023-06-22T01:50:58;13;10;8
44045;PMS7003;29709;52.396;16.796;2023-06-22T01:54:11;11;11;9
44045;PMS7003;29709;52.396;16.796;2023-06-22T01:57:25;10;10;8
44045;PMS7003;29709;52.396;16.796;2023-06-22T02:00:40;13;11;8
44045;PMS7003;29709;52.396;16.796;2023-06-22T02:04:03;13;10;8
44045;PMS7003;29709;52.396;16.796;2023-06-22T02:07:26;13;12;9
44045;PMS7003;29709;52.396;16.796;2023-06-22T02:10:45;11;9;7
44045;PMS7003;29709;52.396;16.796;2023-06-22T02:14:00;11;10;8
44045;PMS7003;29709;52.396;16.796;2023-06-22T02:17:13;12;11;8
44045;PMS7003;29709;52.396;16.796;2023-06-22T02:20:27;11;10;8
44045;PMS7003;29709;52.396;16.796;2023-06-22T02:23:40;8;8;5
44045;PMS7003;29709;52.396;16.796;2023-06-22T02:26:54;9;9;8
44045;PMS7003;29709;52.396;16.796;2023-06-22T02:30:07;10;9;7
44045;PMS7003;29709;52.396;16.796;2023-06-22T02:33:26;13;11;9
44045;PMS7003;29709;52.396;16.796;2023-06-22T02:36:40;11;10;8
44045;PMS7003;29709;52.396;16.796;2023-06-22T02:39:53;13;12;9
44045;PMS7003;29709;52.396;16.796;2023-06-22T02:43:06;9;7;4
44045;PMS7003;29709;52.396;16.796;2023-06-22T02:46:19;12;11;9
44045;PMS7003;29709;52.396;16.796;2023-06-22T02:49:33;14;12;9
44045;PMS7003;29709;52.396;16.796;2023-06-22T02:52:46;14;12;9
44045;PMS7003;29709;52.396;16.796;2023-06-22T02:56:01;12;11;8
44045;PMS7003;29709;52.396;16.796;2023-06-22T02:59:18;13;10;9
44045;PMS7003;29709;52.396;16.796;2023-06-22T03:02:36;11;10;8
44045;PMS7003;29709;52.396;16.796;2023-06-22T03:05:49;11;9;8
44045;PMS7003;29709;52.396;16.796;2023-06-22T03:09:05;9;9;8
44045;PMS7003;29709;52.396;16.796;2023-06-22T03:12:19;12;11;9
44045;PMS7003;29709;52.396;16.796;2023-06-22T03:15:32;11;10;8
44045;PMS7003;29709;52.396;16.796;2023-06-22T03:18:45;10;8;7
44045;PMS7003;29709;52.396;16.796;2023-06-22T03:21:59;12;10;8
44045;PMS7003;29709;52.396;16.796;2023-06-22T03:25:13;13;10;8
44045;PMS7003;29709;52.396;16.796;2023-06-22T03:28:27;13;11;9
44045;PMS7003;29709;52.396;16.796;2023-06-22T03:31:41;11;11;9
44045;PMS7003;29709;52.396;16.796;2023-06-22T03:34:54;15;12;10
44045;PMS7003;29709;52.396;16.796;2023-06-22T03:38:11;15;13;10
44045;PMS7003;29709;52.396;16.796;2023-06-22T03:41:24;12;11;9
44045;PMS7003;29709;52.396;16.796;2023-06-22T03:44:38;10;9;8
44045;PMS7003;29709;52.396;16.796;2023-06-22T03:47:51;13;13;10
44045;PMS7003;29709;52.396;16.796;2023-06-22T03:51:04;15;15;11
44045;PMS7003;29709;52.396;16.796;2023-06-22T03:54:17;11;10;8
44045;PMS7003;29709;52.396;16.796;2023-06-22T03:57:30;12;11;9
44045;PMS7003;29709;52.396;16.796;2023-06-22T04:00:43;14;12;9
44045;PMS7003;29709;52.396;16.796;2023-06-22T04:03:57;11;9;8
44045;PMS7003;29709;52.396;16.796;2023-06-22T04:07:10;10;9;7
44045;PMS7003;29709;52.396;16.796;2023-06-22T04:10:24;9;9;7
44045;PMS7003;29709;52.396;16.796;2023-06-22T04:13:37;12;11;8
44045;PMS7003;29709;52.396;16.796;2023-06-22T04:16:50;10;10;8
44045;PMS7003;29709;52.396;16.796;2023-06-22T04:20:04;10;9;7
44045;PMS7003;29709;52.396;16.796;2023-06-22T04:23:19;8;6;5
44045;PMS7003;29709;52.396;16.796;2023-06-22T04:26:32;8;8;6
44045;PMS7003;29709;52.396;16.796;2023-06-22T04:29:49;8;8;6
44045;PMS7003;29709;52.396;16.796;2023-06-22T04:33:04;8;7;5
44045;PMS7003;29709;52.396;16.796;2023-06-22T04:36:17;9;8;6
44045;PMS7003;29709;52.396;16.796;2023-06-22T04:39:30;9;7;5
44045;PMS7003;29709;52.396;16.796;2023-06-22T04:42:44;9;8;6
44045;PMS7003;29709;52.396;16.796;2023-06-22T04:46:06;8;7;5
44045;PMS7003;29709;52.396;16.796;2023-06-22T04:49:19;8;6;5
44045;PMS7003;29709;52.396;16.796;2023-06-22T04:52:34;6;6;5
44045;PMS7003;29709;52.396;16.796;2023-06-22T04:55:47;8;7;6
44045;PMS7003;29709;52.396;16.796;2023-06-22T04:59:02;9;8;6
44045;PMS7003;29709;52.396;16.796;2023-06-22T05:02:18;8;7;5
44045;PMS7003;29709;52.396;16.796;2023-06-22T05:05:31;5;5;4
44045;PMS7003;29709;52.396;16.796;2023-06-22T05:08:44;6;5;4
44045;PMS7003;29709;52.396;16.796;2023-06-22T05:11:58;7;6;5
44045;PMS7003;29709;52.396;16.796;2023-06-22T05:15:14;7;6;5
44045;PMS7003;29709;52.396;16.796;2023-06-22T05:18:29;4;4;4
44045;PMS7003;29709;52.396;16.796;2023-06-22T05:21:43;8;6;5
44045;PMS7003;29709;52.396;16.796;2023-06-22T05:24:56;5;4;3
44045;PMS7003;29709;52.396;16.796;2023-06-22T05:28:09;1;0;0
44045;PMS7003;29709;52.396;16.796;2023-06-22T05:31:24;4;4;4
44045;PMS7003;29709;52.396;16.796;2023-06-22T05:34:38;4;3;2
44045;PMS7003;29709;52.396;16.796;2023-06-22T05:37:51;1;1;0
44045;PMS7003;29709;52.396;16.796;2023-06-22T05:41:05;3;3;3
44045;PMS7003;29709;52.396;16.796;2023-06-22T05:44:19;3;3;2
44045;PMS7003;29709;52.396;16.796;2023-06-22T05:47:32;3;3;2
44045;PMS7003;29709;52.396;16.796;2023-06-22T05:50:45;4;2;2
44045;PMS7003;29709;52.396;16.796;2023-06-22T05:53:58;5;4;3
44045;PMS7003;29709;52.396;16.796;2023-06-22T05:57:11;5;5;4
44045;PMS7003;29709;52.396;16.796;2023-06-22T06:00:25;4;4;3
44045;PMS7003;29709;52.396;16.796;2023-06-22T06:03:38;4;3;2
44045;PMS7003;29709;52.396;16.796;2023-06-22T06:06:53;5;5;4
44045;PMS7003;29709;52.396;16.796;2023-06-22T06:10:07;3;2;2
44045;PMS7003;29709;52.396;16.796;2023-06-22T06:13:20;3;3;3
44045;PMS7003;29709;52.396;16.796;2023-06-22T06:16:33;3;3;2
44045;PMS7003;29709;52.396;16.796;2023-06-22T06:19:46;2;1;1
44045;PMS7003;29709;52.396;16.796;2023-06-22T06:22:59;8;4;2
44045;PMS7003;29709;52.396;16.796;2023-06-22T06:26:13;2;2;2
44045;PMS7003;29709;52.396;16.796;2023-06-22T06:29:29;3;2;1
44045;PMS7003;29709;52.396;16.796;2023-06-22T06:32:43;1;1;1
44045;PMS7003;29709;52.396;16.796;2023-06-22T06:35:58;1;0;0
44045;PMS7003;29709;52.396;16.796;2023-06-22T06:39:15;1;1;1
44045;PMS7003;29709;52.396;16.796;2023-06-22T06:42:29;1;1;1
44045;PMS7003;29709;52.396;16.796;2023-06-22T06:45:42;3;2;1
44045;PMS7003;29709;52.396;16.796;2023-06-22T06:48:55;1;1;0
44045;PMS7003;29709;52.396;16.796;2023-06-22T06:52:08;1;0;0
44045;PMS7003;29709;52.396;16.796;2023-06-22T06:55:21;0;0;0
44045;PMS7003;29709;52.396;16.796;2023-06-22T06:58:40;2;1;1
44045;PMS7003;29709;52.396;16.796;2023-06-22T07:01:55;1;1;1
44045;PMS7003;29709;52.396;16.796;2023-06-22T07:05:09;1;1;0
44045;PMS7003;29709;52.396;16.796;2023-06-22T07:08:23;1;0;0
44045;PMS7003;29709;52.396;16.796;2023-06-22T07:11:37;1;0;0
44045;PMS7003;29709;52.396;16.796;2023-06-22T07:14:51;1;1;1
44045;PMS7003;29709;52.396;16.796;2023-06-22T07:18:05;0;0;0
44045;PMS7003;29709;52.396;16.796;2023-06-22T07:21:18;1;1;1
44045;PMS7003;29709;52.396;16.796;2023-06-22T07:24:31;1;0;0
44045;PMS7003;29709;52.396;16.796;2023-06-22T07:27:45;2;2;2
44045;PMS7003;29709;52.396;16.796;2023-06-22T07:31:08;1;1;1
44045;PMS7003;29709;52.396;16.796;2023-06-22T07:34:21;4;1;1
44045;PMS7003;29709;52.396;16.796;2023-06-22T07:37:35;1;1;0
44045;PMS7003;29709;52.396;16.796;2023-06-22T07:40:48;1;1;1
44045;PMS7003;29709;52.396;16.796;2023-06-22T07:44:03;1;1;0
44045;PMS7003;29709;52.396;16.796;2023-06-22T07:47:16;4;1;1
44045;PMS7003;29709;52.396;16.796;2023-06-22T07:50:33;1;1;1
44045;PMS7003;29709;52.396;16.796;2023-06-22T07:53:46;1;1;1
44045;PMS7003;29709;52.396;16.796;2023-06-22T07:56:59;2;2;1
44045;PMS7003;29709;52.396;16.796;2023-06-22T08:00:13;2;1;1
44045;PMS7003;29709;52.396;16.796;2023-06-22T08:03:29;2;2;1
44045;PMS7003;29709;52.396;16.796;2023-06-22T08:06:42;5;2;1
44045;PMS7003;29709;52.396;16.796;2023-06-22T08:09:56;2;2;2
44045;PMS7003;29709;52.396;16.796;2023-06-22T08:13:10;1;1;0
44045;PMS7003;29709;52.396;16.796;2023-06-22T08:16:23;2;1;1
44045;PMS7003;29709;52.396;16.796;2023-06-22T08:19:37;1;1;0
44045;PMS7003;29709;52.396;16.796;2023-06-22T08:22:50;4;1;0
44045;PMS7003;29709;52.396;16.796;2023-06-22T08:26:06;1;1;0
44045;PMS7003;29709;52.396;16.796;2023-06-22T08:31:24;2;1;1
44045;PMS7003;29709;52.396;16.796;2023-06-22T08:34:38;2;2;2
44045;PMS7003;29709;52.396;16.796;2023-06-22T08:37:55;4;3;3
44045;PMS7003;29709;52.396;16.796;2023-06-22T08:41:10;2;1;1
44045;PMS7003;29709;52.396;16.796;2023-06-22T08:44:23;2;1;1
44045;PMS7003;29709;52.396;16.796;2023-06-22T08:47:36;3;1;1
44045;PMS7003;29709;52.396;16.796;2023-06-22T08:50:50;2;1;1
44045;PMS7003;29709;52.396;16.796;2023-06-22T08:54:03;1;1;1
44045;PMS7003;29709;52.396;16.796;2023-06-22T08:57:16;1;1;1
44045;PMS7003;29709;52.396;16.796;2023-06-22T09:00:30;1;1;1
44045;PMS7003;29709;52.396;16.796;2023-06-22T09:03:48;1;1;1
44045;PMS7003;29709;52.396;16.796;2023-06-22T09:07:10;1;1;0
44045;PMS7003;29709;52.396;16.796;2023-06-22T09:10:24;0;0;0
44045;PMS7003;29709;52.396;16.796;2023-06-22T09:13:38;1;1;0
44045;PMS7003;29709;52.396;16.796;2023-06-22T09:16:52;2;2;1
44045;PMS7003;29709;52.396;16.796;2023-06-22T09:20:05;1;1;1
44045;PMS7003;29709;52.396;16.796;2023-06-22T09:23:23;0;0;0
44045;PMS7003;29709;52.396;16.796;2023-06-22T09:26:36;2;1;1
44045;PMS7003;29709;52.396;16.796;2023-06-22T09:29:49;1;1;1
44045;PMS7003;29709;52.396;16.796;2023-06-22T09:33:02;1;1;1
44045;PMS7003;29709;52.396;16.796;2023-06-22T09:36:16;2;2;2
44045;PMS7003;29709;52.396;16.796;2023-06-22T09:42:50;1;1;1
44045;PMS7003;29709;52.396;16.796;2023-06-22T09:46:03;3;2;1
44045;PMS7003;29709;52.396;16.796;2023-06-22T09:49:16;2;2;2
44045;PMS7003;29709;52.396;16.796;2023-06-22T09:52:29;1;1;1
44045;PMS7003;29709;52.396;16.796;2023-06-22T09:55:42;1;1;0
44045;PMS7003;29709;52.396;16.796;2023-06-22T09:58:55;1;1;0
44045;PMS7003;29709;52.396;16.796;2023-06-22T10:02:08;4;1;0
44045;PMS7003;29709;52.396;16.796;2023-06-22T10:05:22;0;0;0
44045;PMS7003;29709;52.396;16.796;2023-06-22T10:08:35;2;1;1
44045;PMS7003;29709;52.396;16.796;2023-06-22T10:11:49;0;0;0
44045;PMS7003;29709;52.396;16.796;2023-06-22T10:15:02;2;2;1
44045;PMS7003;29709;52.396;16.796;2023-06-22T10:18:15;2;1;1
44045;PMS7003;29709;52.396;16.796;2023-06-22T10:21:29;1;1;1
44045;PMS7003;29709;52.396;16.796;2023-06-22T10:24:43;2;1;1
44045;PMS7003;29709;52.396;16.796;2023-06-22T10:27:58;1;1;1
44045;PMS7003;29709;52.396;16.796;2023-06-22T10:31:16;1;1;1
44045;PMS7003;29709;52.396;16.796;2023-06-22T10:34:29;1;1;1
44045;PMS7003;29709;52.396;16.796;2023-06-22T10:37:43;1;1;1
44045;PMS7003;29709;52.396;16.796;2023-06-22T10:40:57;1;1;1
44045;PMS7003;29709;52.396;16.796;2023-06-22T10:44:12;1;1;1
44045;PMS7003;29709;52.396;16.796;2023-06-22T10:47:26;2;1;1
44045;PMS7003;29709;52.396;16.796;2023-06-22T10:50:39;0;0;0
44045;PMS7003;29709;52.396;16.796;2023-06-22T10:53:53;0;0;0
44045;PMS7003;29709;52.396;16.796;2023-06-22T10:57:06;4;2;1
44045;PMS7003;29709;52.396;16.796;2023-06-22T11:00:20;1;1;1
44045;PMS7003;29709;52.396;16.796;2023-06-22T11:03:34;1;1;1
44045;PMS7003;29709;52.396;16.796;2023-06-22T11:06:47;3;2;1
44045;PMS7003;29709;52.396;16.796;2023-06-22T11:10:02;3;1;1
44045;PMS7003;29709;52.396;16.796;2023-06-22T11:13:16;2;2;1
44045;PMS7003;29709;52.396;16.796;2023-06-22T11:16:29;2;1;1
44045;PMS7003;29709;52.396;16.796;2023-06-22T11:19:43;1;1;1
44045;PMS7003;29709;52.396;16.796;2023-06-22T11:22:57;1;1;1
44045;PMS7003;29709;52.396;16.796;2023-06-22T11:26:10;2;1;1
44045;PMS7003;29709;52.396;16.796;2023-06-22T11:29:24;4;3;2
44045;PMS7003;29709;52.396;16.796;2023-06-22T11:32:37;3;3;3
44045;PMS7003;29709;52.396;16.796;2023-06-22T11:35:50;5;3;3
44045;PMS7003;29709;52.396;16.796;2023-06-22T11:39:03;4;3;2
44045;PMS7003;29709;52.396;16.796;2023-06-22T11:42:17;3;3;2
44045;PMS7003;29709;52.396;16.796;2023-06-22T11:45:30;4;2;2
44045;PMS7003;29709;52.396;16.796;2023-06-22T11:48:44;4;3;3
44045;PMS7003;29709;52.396;16.796;2023-06-22T11:51:58;3;3;2
44045;PMS7003;29709;52.396;16.796;2023-06-22T11:55:11;5;2;2
44045;PMS7003;29709;52.396;16.796;2023-06-22T11:58:25;3;3;2
44045;PMS7003;29709;52.396;16.796;2023-06-22T12:01:38;3;3;2
44045;PMS7003;29709;52.396;16.796;2023-06-22T12:04:51;3;1;1
44045;PMS7003;29709;52.396;16.796;2023-06-22T12:08:07;2;2;2
44045;PMS7003;29709;52.396;16.796;2023-06-22T12:11:20;4;3;2
44045;PMS7003;29709;52.396;16.796;2023-06-22T12:14:33;4;2;2
44045;PMS7003;29709;52.396;16.796;2023-06-22T12:17:47;3;3;2
44045;PMS7003;29709;52.396;16.796;2023-06-22T12:21:01;3;2;2
44045;PMS7003;29709;52.396;16.796;2023-06-22T12:24:14;4;3;3
44045;PMS7003;29709;52.396;16.796;2023-06-22T12:27:27;2;2;2
44045;PMS7003;29709;52.396;16.796;2023-06-22T12:30:43;5;3;3
44045;PMS7003;29709;52.396;16.796;2023-06-22T12:33:56;3;3;3
44045;PMS7003;29709;52.396;16.796;2023-06-22T12:37:10;4;4;3
44045;PMS7003;29709;52.396;16.796;2023-06-22T12:40:23;4;4;3
44045;PMS7003;29709;52.396;16.796;2023-06-22T12:43:37;3;2;2
44045;PMS7003;29709;52.396;16.796;2023-06-22T12:46:50;2;2;1
44045;PMS7003;29709;52.396;16.796;2023-06-22T12:50:04;2;2;2
44045;PMS7003;29709;52.396;16.796;2023-06-22T12:53:18;3;3;2
44045;PMS7003;29709;52.396;16.796;2023-06-22T12:56:31;4;4;3
44045;PMS7003;29709;52.396;16.796;2023-06-22T12:59:44;3;3;3
44045;PMS7003;29709;52.396;16.796;2023-06-22T13:02:58;5;4;3
44045;PMS7003;29709;52.396;16.796;2023-06-22T13:06:11;4;3;2
44045;PMS7003;29709;52.396;16.796;2023-06-22T13:09:24;3;3;2
44045;PMS7003;29709;52.396;16.796;2023-06-22T13:12:38;4;3;2
44045;PMS7003;29709;52.396;16.796;2023-06-22T13:15:51;4;3;2
44045;PMS7003;29709;52.396;16.796;2023-06-22T13:19:06;4;4;3
44045;PMS7003;29709;52.396;16.796;2023-06-22T13:25:43;1;1;0
44045;PMS7003;29709;52.396;16.796;2023-06-22T13:28:56;2;2;2
44045;PMS7003;29709;52.396;16.796;2023-06-22T13:32:10;4;3;3
44045;PMS7003;29709;52.396;16.796;2023-06-22T13:35:23;4;4;4
44045;PMS7003;29709;52.396;16.796;2023-06-22T13:38:37;3;3;3
44045;PMS7003;29709;52.396;16.796;2023-06-22T13:41:52;4;4;3
44045;PMS7003;29709;52.396;16.796;2023-06-22T13:45:06;3;3;2
44045;PMS7003;29709;52.396;16.796;2023-06-22T13:48:20;3;3;2
44045;PMS7003;29709;52.396;16.796;2023-06-22T13:51:36;4;4;3
44045;PMS7003;29709;52.396;16.796;2023-06-22T13:54:49;4;4;3
44045;PMS7003;29709;52.396;16.796;2023-06-22T13:58:02;3;3;3
44045;PMS7003;29709;52.396;16.796;2023-06-22T14:01:15;6;4;4
44045;PMS7003;29709;52.396;16.796;2023-06-22T14:04:28;9;3;3
44045;PMS7003;29709;52.396;16.796;2023-06-22T14:07:42;3;3;3
44045;PMS7003;29709;52.396;16.796;2023-06-22T14:10:55;5;4;4
44045;PMS7003;29709;52.396;16.796;2023-06-22T14:14:08;4;3;3
44045;PMS7003;29709;52.396;16.796;2023-06-22T14:17:21;5;4;3
44045;PMS7003;29709;52.396;16.796;2023-06-22T14:20:38;3;3;2
44045;PMS7003;29709;52.396;16.796;2023-06-22T14:23:53;5;5;4
44045;PMS7003;29709;52.396;16.796;2023-06-22T14:27:06;5;4;3
44045;PMS7003;29709;52.396;16.796;2023-06-22T14:30:21;5;4;3
44045;PMS7003;29709;52.396;16.796;2023-06-22T14:33:34;3;2;2
44045;PMS7003;29709;52.396;16.796;2023-06-22T14:36:47;3;3;3
44045;PMS7003;29709;52.396;16.796;2023-06-22T14:40:01;4;4;3
44045;PMS7003;29709;52.396;16.796;2023-06-22T14:43:14;4;3;3
44045;PMS7003;29709;52.396;16.796;2023-06-22T14:46:27;4;3;3
44045;PMS7003;29709;52.396;16.796;2023-06-22T14:49:40;3;3;3
44045;PMS7003;29709;52.396;16.796;2023-06-22T14:52:54;4;2;2
44045;PMS7003;29709;52.396;16.796;2023-06-22T14:56:07;6;3;2
44045;PMS7003;29709;52.396;16.796;2023-06-22T14:59:20;4;4;3
44045;PMS7003;29709;52.396;16.796;2023-06-22T15:02:33;3;3;3
44045;PMS7003;29709;52.396;16.796;2023-06-22T15:05:46;6;3;3
44045;PMS7003;29709;52.396;16.796;2023-06-22T15:09:00;3;3;3
44045;PMS7003;29709;52.396;16.796;2023-06-22T15:12:13;6;3;3
44045;PMS7003;29709;52.396;16.796;2023-06-22T15:15:26;3;2;1
44045;PMS7003;29709;52.396;16.796;2023-06-22T15:18:39;3;3;3
44045;PMS7003;29709;52.396;16.796;2023-06-22T15:21:53;4;3;2
44045;PMS7003;29709;52.396;16.796;2023-06-22T15:25:07;4;3;3
44045;PMS7003;29709;52.396;16.796;2023-06-22T15:28:21;4;2;2
44045;PMS7003;29709;52.396;16.796;2023-06-22T15:31:34;4;3;2
44045;PMS7003;29709;52.396;16.796;2023-06-22T15:34:47;2;2;2
44045;PMS7003;29709;52.396;16.796;2023-06-22T15:38:06;3;2;2
44045;PMS7003;29709;52.396;16.796;2023-06-22T15:41:19;5;4;4
44045;PMS7003;29709;52.396;16.796;2023-06-22T15:44:32;3;3;3
44045;PMS7003;29709;52.396;16.796;2023-06-22T15:47:45;2;2;1
44045;PMS7003;29709;52.396;16.796;2023-06-22T15:50:58;4;3;3
44045;PMS7003;29709;52.396;16.796;2023-06-22T15:54:14;5;4;3
44045;PMS7003;29709;52.396;16.796;2023-06-22T15:57:27;5;3;3
44045;PMS7003;29709;52.396;16.796;2023-06-22T16:00:41;6;5;4
44045;PMS7003;29709;52.396;16.796;2023-06-22T16:03:54;7;4;3
44045;PMS7003;29709;52.396;16.796;2023-06-22T16:07:08;4;3;3
44045;PMS7003;29709;52.396;16.796;2023-06-22T16:10:21;3;3;3
44045;PMS7003;29709;52.396;16.796;2023-06-22T16:13:34;15;13;11
44045;PMS7003;29709;52.396;16.796;2023-06-22T16:16:47;5;4;3
44045;PMS7003;29709;52.396;16.796;2023-06-22T16:20:01;4;4;3
44045;PMS7003;29709;52.396;16.796;2023-06-22T16:23:15;3;3;2
44045;PMS7003;29709;52.396;16.796;2023-06-22T16:26:30;4;3;3
44045;PMS7003;29709;52.396;16.796;2023-06-22T16:29:48;3;3;3
44045;PMS7003;29709;52.396;16.796;2023-06-22T16:33:01;5;3;3
44045;PMS7003;29709;52.396;16.796;2023-06-22T16:36:15;7;5;4
44045;PMS7003;29709;52.396;16.796;2023-06-22T16:39:29;4;3;3
44045;PMS7003;29709;52.396;16.796;2023-06-22T16:42:44;7;4;3
44045;PMS7003;29709;52.396;16.796;2023-06-22T16:45:58;3;3;3
44045;PMS7003;29709;52.396;16.796;2023-06-22T16:49:12;4;4;3
44045;PMS7003;29709;52.396;16.796;2023-06-22T16:52:25;5;4;3
44045;PMS7003;29709;52.396;16.796;2023-06-22T16:55:38;3;3;3
44045;PMS7003;29709;52.396;16.796;2023-06-22T16:58:53;4;4;4
44045;PMS7003;29709;52.396;16.796;2023-06-22T17:02:11;4;3;3
44045;PMS7003;29709;52.396;16.796;2023-06-22T17:05:33;3;3;3
44045;PMS7003;29709;52.396;16.796;2023-06-22T17:08:48;5;3;3
44045;PMS7003;29709;52.396;16.796;2023-06-22T17:12:02;6;6;5
44045;PMS7003;29709;52.396;16.796;2023-06-22T17:15:17;4;4;3
44045;PMS7003;29709;52.396;16.796;2023-06-22T17:18:34;4;4;3
44045;PMS7003;29709;52.396;16.796;2023-06-22T17:21:51;6;4;3
44045;PMS7003;29709;52.396;16.796;2023-06-22T17:25:12;5;4;3
44045;PMS7003;29709;52.396;16.796;2023-06-22T17:31:57;3;3;2
44045;PMS7003;29709;52.396;16.796;2023-06-22T17:35:11;4;3;3
44045;PMS7003;29709;52.396;16.796;2023-06-22T17:38:24;4;3;3
44045;PMS7003;29709;52.396;16.796;2023-06-22T17:41:39;5;4;3
44045;PMS7003;29709;52.396;16.796;2023-06-22T17:44:53;6;5;4
44045;PMS7003;29709;52.396;16.796;2023-06-22T17:48:14;4;4;4
44045;PMS7003;29709;52.396;16.796;2023-06-22T17:51:35;4;3;3
44045;PMS7003;29709;52.396;16.796;2023-06-22T17:54:52;2;0;0
44045;PMS7003;29709;52.396;16.796;2023-06-22T17:58:05;4;4;4
44045;PMS7003;29709;52.396;16.796;2023-06-22T18:04:42;4;3;3
44045;PMS7003;29709;52.396;16.796;2023-06-22T18:07:56;3;3;2
44045;PMS7003;29709;52.396;16.796;2023-06-22T18:11:11;5;3;2
44045;PMS7003;29709;52.396;16.796;2023-06-22T18:14:25;3;2;2
44045;PMS7003;29709;52.396;16.796;2023-06-22T18:17:41;4;3;2
44045;PMS7003;29709;52.396;16.796;2023-06-22T18:20:55;5;4;3
44045;PMS7003;29709;52.396;16.796;2023-06-22T18:24:10;5;4;3
44045;PMS7003;29709;52.396;16.796;2023-06-22T18:27:23;5;4;4
44045;PMS7003;29709;52.396;16.796;2023-06-22T18:30:37;3;3;3
44045;PMS7003;29709;52.396;16.796;2023-06-22T18:33:52;3;3;3
44045;PMS7003;29709;52.396;16.796;2023-06-22T18:37:09;3;3;3
44045;PMS7003;29709;52.396;16.796;2023-06-22T18:40:25;5;3;3
44045;PMS7003;29709;52.396;16.796;2023-06-22T18:43:39;6;5;5
44045;PMS7003;29709;52.396;16.796;2023-06-22T18:50:13;3;2;2
44045;PMS7003;29709;52.396;16.796;2023-06-22T18:53:36;3;3;3
44045;PMS7003;29709;52.396;16.796;2023-06-22T19:00:10;4;1;0
44045;PMS7003;29709;52.396;16.796;2023-06-22T19:03:29;4;3;3
44045;PMS7003;29709;52.396;16.796;2023-06-22T19:13:32;5;4;4
44045;PMS7003;29709;52.396;16.796;2023-06-22T19:16:46;4;3;3
44045;PMS7003;29709;52.396;16.796;2023-06-22T19:20:01;9;5;4
44045;PMS7003;29709;52.396;16.796;2023-06-22T19:26:50;4;3;3
44045;PMS7003;29709;52.396;16.796;2023-06-22T19:30:05;4;3;3
44045;PMS7003;29709;52.396;16.796;2023-06-22T19:33:20;4;3;3
44045;PMS7003;29709;52.396;16.796;2023-06-22T19:36:34;4;4;3
44045;PMS7003;29709;52.396;16.796;2023-06-22T19:43:13;4;4;4
44045;PMS7003;29709;52.396;16.796;2023-06-22T19:46:27;5;4;4
44045;PMS7003;29709;52.396;16.796;2023-06-22T19:49:44;5;4;4
44045;PMS7003;29709;52.396;16.796;2023-06-22T19:52:57;5;4;3
44045;PMS7003;29709;52.396;16.796;2023-06-22T19:56:11;5;3;3
44045;PMS7003;29709;52.396;16.796;2023-06-22T19:59:24;4;3;3
44045;PMS7003;29709;52.396;16.796;2023-06-22T20:02:40;5;4;4
44045;PMS7003;29709;52.396;16.796;2023-06-22T20:09:22;4;4;3
44045;PMS7003;29709;52.396;16.796;2023-06-22T20:12:35;4;3;3
44045;PMS7003;29709;52.396;16.796;2023-06-22T20:15:49;3;2;2
44045;PMS7003;29709;52.396;16.796;2023-06-22T20:22:29;4;4;3
44045;PMS7003;29709;52.396;16.796;2023-06-22T20:25:42;4;2;2
44045;PMS7003;29709;52.396;16.796;2023-06-22T20:28:59;7;5;5
44045;PMS7003;29709;52.396;16.796;2023-06-22T20:32:12;4;4;3
44045;PMS7003;29709;52.396;16.796;2023-06-22T20:35:26;5;4;3
44045;PMS7003;29709;52.396;16.796;2023-06-22T20:38:39;5;5;3
44045;PMS7003;29709;52.396;16.796;2023-06-22T20:41:52;4;3;3
44045;PMS7003;29709;52.396;16.796;2023-06-22T20:45:07;4;4;3
44045;PMS7003;29709;52.396;16.796;2023-06-22T20:48:22;3;3;3
44045;PMS7003;29709;52.396;16.796;2023-06-22T20:51:35;5;4;3
44045;PMS7003;29709;52.396;16.796;2023-06-22T20:54:48;4;3;3
44045;PMS7003;29709;52.396;16.796;2023-06-22T20:58:02;5;4;3
44045;PMS7003;29709;52.396;16.796;2023-06-22T21:01:15;6;4;4
44045;PMS7003;29709;52.396;16.796;2023-06-22T21:04:30;5;4;3
44045;PMS7003;29709;52.396;16.796;2023-06-22T21:07:44;4;4;3
44045;PMS7003;29709;52.396;16.796;2023-06-22T21:10:57;4;3;3
44045;PMS7003;29709;52.396;16.796;2023-06-22T21:14:10;7;6;5
44045;PMS7003;29709;52.396;16.796;2023-06-22T21:17:23;8;5;4
44045;PMS7003;29709;52.396;16.796;2023-06-22T21:20:37;5;4;4
44045;PMS7003;29709;52.396;16.796;2023-06-22T21:23:50;5;3;3
44045;PMS7003;29709;52.396;16.796;2023-06-22T21:27:03;7;5;4
44045;PMS7003;29709;52.396;16.796;2023-06-22T21:30:16;7;6;5
44045;PMS7003;29709;52.396;16.796;2023-06-22T21:33:30;7;4;4
44045;PMS7003;29709;52.396;16.796;2023-06-22T21:36:43;5;4;4
44045;PMS7003;29709;52.396;16.796;2023-06-22T21:39:56;6;6;5
44045;PMS7003;29709;52.396;16.796;2023-06-22T21:43:10;6;5;4
44045;PMS7003;29709;52.396;16.796;2023-06-22T21:46:26;4;4;4
44045;PMS7003;29709;52.396;16.796;2023-06-22T21:49:39;6;4;3
44045;PMS7003;29709;52.396;16.796;2023-06-22T21:52:53;5;5;4
44045;PMS7003;29709;52.396;16.796;2023-06-22T21:56:06;5;4;3
44045;PMS7003;29709;52.396;16.796;2023-06-22T21:59:19;5;4;4
44045;PMS7003;29709;52.396;16.796;2023-06-22T22:02:34;5;5;4
44045;PMS7003;29709;52.396;16.796;2023-06-22T22:05:47;6;6;4
44045;PMS7003;29709;52.396;16.796;2023-06-22T22:09:01;6;5;4
44045;PMS7003;29709;52.396;16.796;2023-06-22T22:12:17;7;4;4